Terminal Aerodrome Forecast
Issued by NWS

Home | Current Version | Previous Version | Text Only | Print | Product List | Glossary On
Versions: 1 2 3 4 5 6 7 8 9 10 11 12 13 14 15 16 17 18 19 20
564
FTUS45 KTFX 231731
TAFCTB
TAF
KCTB 231731Z 2318/2418 03011KT P6SM SCT012 BKN040
      TEMPO 2318/2321 3SM -SN BR BKN012
     FM232100 03007KT P6SM SCT015 BKN040
      TEMPO 2321/2324 4SM -SHSN BR BKN020
     FM240300 34005KT P6SM SCT020 BKN045=

USA.gov is the U.S. government's official web portal to all federal, state and local government web resources and services.